sensor_id;sensor_type;location;lat;lon;timestamp;P1;durP1;ratioP1;P2;durP2;ratioP2
82186;SDS011;71776;52.042;8.160;2023-08-06T00:00:37;6.18;;;5.68;;
82186;SDS011;71776;52.042;8.160;2023-08-06T00:03:04;5.43;;;5.03;;
82186;SDS011;71776;52.042;8.160;2023-08-06T00:05:29;6.85;;;6.07;;
82186;SDS011;71776;52.042;8.160;2023-08-06T00:07:55;6.90;;;6.25;;
82186;SDS011;71776;52.042;8.160;2023-08-06T00:10:20;6.72;;;6.18;;
82186;SDS011;71776;52.042;8.160;2023-08-06T00:12:46;6.20;;;5.32;;
82186;SDS011;71776;52.042;8.160;2023-08-06T00:15:11;5.90;;;5.40;;
82186;SDS011;71776;52.042;8.160;2023-08-06T00:17:37;5.90;;;5.07;;
82186;SDS011;71776;52.042;8.160;2023-08-06T00:20:05;9.52;;;5.43;;
82186;SDS011;71776;52.042;8.160;2023-08-06T00:22:32;5.82;;;5.20;;
82186;SDS011;71776;52.042;8.160;2023-08-06T00:24:58;5.15;;;4.75;;
82186;SDS011;71776;52.042;8.160;2023-08-06T00:27:24;5.53;;;5.13;;
82186;SDS011;71776;52.042;8.160;2023-08-06T00:29:50;5.93;;;5.13;;
82186;SDS011;71776;52.042;8.160;2023-08-06T00:32:15;5.53;;;5.13;;
82186;SDS011;71776;52.042;8.160;2023-08-06T00:34:41;6.10;;;5.50;;
82186;SDS011;71776;52.042;8.160;2023-08-06T00:37:08;5.40;;;5.00;;
82186;SDS011;71776;52.042;8.160;2023-08-06T00:39:33;5.35;;;4.85;;
82186;SDS011;71776;52.042;8.160;2023-08-06T00:41:59;5.25;;;4.72;;
82186;SDS011;71776;52.042;8.160;2023-08-06T00:44:24;5.07;;;4.68;;
82186;SDS011;71776;52.042;8.160;2023-08-06T00:46:50;4.82;;;4.53;;
82186;SDS011;71776;52.042;8.160;2023-08-06T00:49:15;4.82;;;4.43;;
82186;SDS011;71776;52.042;8.160;2023-08-06T00:51:41;7.78;;;5.15;;
82186;SDS011;71776;52.042;8.160;2023-08-06T00:54:09;5.32;;;4.93;;
82186;SDS011;71776;52.042;8.160;2023-08-06T00:56:35;5.30;;;4.90;;
82186;SDS011;71776;52.042;8.160;2023-08-06T00:59:05;5.17;;;4.77;;
82186;SDS011;71776;52.042;8.160;2023-08-06T01:01:31;5.03;;;4.63;;
82186;SDS011;71776;52.042;8.160;2023-08-06T01:03:57;4.47;;;4.18;;
82186;SDS011;71776;52.042;8.160;2023-08-06T01:06:23;6.30;;;4.68;;
82186;SDS011;71776;52.042;8.160;2023-08-06T01:09:07;4.65;;;4.35;;
82186;SDS011;71776;52.042;8.160;2023-08-06T01:11:50;5.10;;;4.70;;
82186;SDS011;71776;52.042;8.160;2023-08-06T01:14:23;4.88;;;4.47;;
82186;SDS011;71776;52.042;8.160;2023-08-06T01:16:53;4.95;;;4.53;;
82186;SDS011;71776;52.042;8.160;2023-08-06T01:19:20;4.50;;;4.20;;
82186;SDS011;71776;52.042;8.160;2023-08-06T01:21:48;4.53;;;4.22;;
82186;SDS011;71776;52.042;8.160;2023-08-06T01:24:13;4.40;;;4.10;;
82186;SDS011;71776;52.042;8.160;2023-08-06T01:26:41;6.72;;;4.80;;
82186;SDS011;71776;52.042;8.160;2023-08-06T01:29:10;5.47;;;5.07;;
82186;SDS011;71776;52.042;8.160;2023-08-06T01:31:41;4.70;;;4.40;;
82186;SDS011;71776;52.042;8.160;2023-08-06T01:34:09;4.55;;;4.25;;
82186;SDS011;71776;52.042;8.160;2023-08-06T01:36:42;8.32;;;5.35;;
82186;SDS011;71776;52.042;8.160;2023-08-06T01:39:09;4.78;;;4.20;;
82186;SDS011;71776;52.042;8.160;2023-08-06T01:41:35;4.50;;;4.20;;
82186;SDS011;71776;52.042;8.160;2023-08-06T01:44:00;4.93;;;4.07;;
82186;SDS011;71776;52.042;8.160;2023-08-06T01:46:26;4.72;;;4.32;;
82186;SDS011;71776;52.042;8.160;2023-08-06T01:48:52;7.07;;;4.28;;
82186;SDS011;71776;52.042;8.160;2023-08-06T01:51:17;6.07;;;4.97;;
82186;SDS011;71776;52.042;8.160;2023-08-06T01:53:42;4.75;;;4.35;;
82186;SDS011;71776;52.042;8.160;2023-08-06T01:56:09;5.22;;;4.50;;
82186;SDS011;71776;52.042;8.160;2023-08-06T01:58:35;4.70;;;4.30;;
82186;SDS011;71776;52.042;8.160;2023-08-06T02:01:00;4.55;;;4.25;;
82186;SDS011;71776;52.042;8.160;2023-08-06T02:03:26;4.65;;;4.20;;
82186;SDS011;71776;52.042;8.160;2023-08-06T02:05:52;4.57;;;4.18;;
82186;SDS011;71776;52.042;8.160;2023-08-06T02:08:17;4.88;;;4.47;;
82186;SDS011;71776;52.042;8.160;2023-08-06T02:10:43;4.80;;;4.40;;
82186;SDS011;71776;52.042;8.160;2023-08-06T02:13:10;5.28;;;4.85;;
82186;SDS011;71776;52.042;8.160;2023-08-06T02:15:41;5.10;;;4.40;;
82186;SDS011;71776;52.042;8.160;2023-08-06T02:20:32;5.72;;;5.22;;
82186;SDS011;71776;52.042;8.160;2023-08-06T02:22:58;5.00;;;4.60;;
82186;SDS011;71776;52.042;8.160;2023-08-06T02:25:24;6.32;;;5.35;;
82186;SDS011;71776;52.042;8.160;2023-08-06T02:27:49;5.75;;;5.28;;
82186;SDS011;71776;52.042;8.160;2023-08-06T02:30:16;5.30;;;4.80;;
82186;SDS011;71776;52.042;8.160;2023-08-06T02:32:42;5.65;;;5.15;;
82186;SDS011;71776;52.042;8.160;2023-08-06T02:35:07;5.38;;;4.88;;
82186;SDS011;71776;52.042;8.160;2023-08-06T02:37:33;4.75;;;4.45;;
82186;SDS011;71776;52.042;8.160;2023-08-06T02:39:59;5.38;;;4.50;;
82186;SDS011;71776;52.042;8.160;2023-08-06T02:42:24;6.38;;;4.70;;
82186;SDS011;71776;52.042;8.160;2023-08-06T02:44:50;4.80;;;4.50;;
82186;SDS011;71776;52.042;8.160;2023-08-06T02:47:17;5.75;;;4.57;;
82186;SDS011;71776;52.042;8.160;2023-08-06T02:49:44;5.55;;;4.72;;
82186;SDS011;71776;52.042;8.160;2023-08-06T02:52:09;5.20;;;4.80;;
82186;SDS011;71776;52.042;8.160;2023-08-06T02:54:35;6.72;;;4.60;;
82186;SDS011;71776;52.042;8.160;2023-08-06T02:57:00;5.68;;;4.70;;
82186;SDS011;71776;52.042;8.160;2023-08-06T02:59:26;5.55;;;4.80;;
82186;SDS011;71776;52.042;8.160;2023-08-06T03:01:51;5.32;;;4.93;;
82186;SDS011;71776;52.042;8.160;2023-08-06T03:04:18;6.22;;;5.00;;
82186;SDS011;71776;52.042;8.160;2023-08-06T03:06:44;5.22;;;4.82;;
82186;SDS011;71776;52.042;8.160;2023-08-06T03:09:09;7.35;;;5.03;;
82186;SDS011;71776;52.042;8.160;2023-08-06T03:11:35;5.90;;;5.40;;
82186;SDS011;71776;52.042;8.160;2023-08-06T03:14:00;5.55;;;5.15;;
82186;SDS011;71776;52.042;8.160;2023-08-06T03:16:26;5.88;;;5.43;;
82186;SDS011;71776;52.042;8.160;2023-08-06T03:18:51;5.00;;;4.60;;
82186;SDS011;71776;52.042;8.160;2023-08-06T03:21:18;5.95;;;5.43;;
82186;SDS011;71776;52.042;8.160;2023-08-06T03:23:46;5.15;;;4.72;;
82186;SDS011;71776;52.042;8.160;2023-08-06T03:26:12;5.07;;;4.65;;
82186;SDS011;71776;52.042;8.160;2023-08-06T03:28:37;5.15;;;4.65;;
82186;SDS011;71776;52.042;8.160;2023-08-06T03:31:03;7.50;;;5.00;;
82186;SDS011;71776;52.042;8.160;2023-08-06T03:33:29;5.65;;;5.25;;
82186;SDS011;71776;52.042;8.160;2023-08-06T03:35:55;5.47;;;4.97;;
82186;SDS011;71776;52.042;8.160;2023-08-06T03:38:22;6.20;;;5.20;;
82186;SDS011;71776;52.042;8.160;2023-08-06T03:40:47;5.07;;;4.68;;
82186;SDS011;71776;52.042;8.160;2023-08-06T03:43:13;5.55;;;4.85;;
82186;SDS011;71776;52.042;8.160;2023-08-06T03:45:39;4.72;;;4.43;;
82186;SDS011;71776;52.042;8.160;2023-08-06T03:48:05;5.18;;;4.78;;
82186;SDS011;71776;52.042;8.160;2023-08-06T03:50:31;4.80;;;4.40;;
82186;SDS011;71776;52.042;8.160;2023-08-06T03:52:57;5.10;;;4.70;;
82186;SDS011;71776;52.042;8.160;2023-08-06T03:55:24;4.40;;;4.00;;
82186;SDS011;71776;52.042;8.160;2023-08-06T03:57:49;5.32;;;4.53;;
82186;SDS011;71776;52.042;8.160;2023-08-06T04:00:16;4.95;;;4.28;;
82186;SDS011;71776;52.042;8.160;2023-08-06T04:02:42;4.65;;;4.35;;
82186;SDS011;71776;52.042;8.160;2023-08-06T04:05:08;5.32;;;4.55;;
82186;SDS011;71776;52.042;8.160;2023-08-06T04:07:34;5.95;;;4.80;;
82186;SDS011;71776;52.042;8.160;2023-08-06T04:10:00;5.20;;;4.72;;
82186;SDS011;71776;52.042;8.160;2023-08-06T04:12:28;6.43;;;5.03;;
82186;SDS011;71776;52.042;8.160;2023-08-06T04:14:55;4.88;;;4.40;;
82186;SDS011;71776;52.042;8.160;2023-08-06T04:17:22;5.30;;;4.80;;
82186;SDS011;71776;52.042;8.160;2023-08-06T04:19:48;4.13;;;3.83;;
82186;SDS011;71776;52.042;8.160;2023-08-06T04:22:15;5.13;;;4.63;;
82186;SDS011;71776;52.042;8.160;2023-08-06T04:24:43;5.40;;;4.90;;
82186;SDS011;71776;52.042;8.160;2023-08-06T04:27:09;4.93;;;4.43;;
82186;SDS011;71776;52.042;8.160;2023-08-06T04:29:36;5.10;;;4.60;;
82186;SDS011;71776;52.042;8.160;2023-08-06T04:32:02;5.53;;;4.88;;
82186;SDS011;71776;52.042;8.160;2023-08-06T04:34:28;5.40;;;5.00;;
82186;SDS011;71776;52.042;8.160;2023-08-06T04:36:54;4.85;;;4.47;;
82186;SDS011;71776;52.042;8.160;2023-08-06T04:39:19;5.22;;;4.72;;
82186;SDS011;71776;52.042;8.160;2023-08-06T04:41:45;6.05;;;4.70;;
82186;SDS011;71776;52.042;8.160;2023-08-06T04:44:10;5.00;;;4.50;;
82186;SDS011;71776;52.042;8.160;2023-08-06T04:46:37;4.80;;;4.40;;
82186;SDS011;71776;52.042;8.160;2023-08-06T04:49:03;4.65;;;4.35;;
82186;SDS011;71776;52.042;8.160;2023-08-06T04:51:28;6.65;;;4.90;;
82186;SDS011;71776;52.042;8.160;2023-08-06T04:53:54;5.32;;;4.85;;
82186;SDS011;71776;52.042;8.160;2023-08-06T04:56:19;5.50;;;5.10;;
82186;SDS011;71776;52.042;8.160;2023-08-06T04:58:45;8.20;;;5.05;;
82186;SDS011;71776;52.042;8.160;2023-08-06T05:01:10;5.25;;;4.75;;
82186;SDS011;71776;52.042;8.160;2023-08-06T05:03:37;4.93;;;4.15;;
82186;SDS011;71776;52.042;8.160;2023-08-06T05:06:03;11.00;;;4.00;;
82186;SDS011;71776;52.042;8.160;2023-08-06T05:08:28;4.03;;;3.72;;
82186;SDS011;71776;52.042;8.160;2023-08-06T05:10:54;7.93;;;4.22;;
82186;SDS011;71776;52.042;8.160;2023-08-06T05:13:19;4.10;;;3.80;;
82186;SDS011;71776;52.042;8.160;2023-08-06T05:15:45;4.13;;;3.85;;
82186;SDS011;71776;52.042;8.160;2023-08-06T05:18:10;4.00;;;3.67;;
82186;SDS011;71776;52.042;8.160;2023-08-06T05:20:37;3.88;;;3.58;;
82186;SDS011;71776;52.042;8.160;2023-08-06T05:23:03;3.80;;;3.50;;
82186;SDS011;71776;52.042;8.160;2023-08-06T05:25:29;4.22;;;3.67;;
82186;SDS011;71776;52.042;8.160;2023-08-06T05:27:54;4.10;;;3.80;;
82186;SDS011;71776;52.042;8.160;2023-08-06T05:30:20;4.72;;;4.18;;
82186;SDS011;71776;52.042;8.160;2023-08-06T05:32:46;4.22;;;3.85;;
82186;SDS011;71776;52.042;8.160;2023-08-06T05:35:11;4.60;;;4.18;;
82186;SDS011;71776;52.042;8.160;2023-08-06T05:37:38;5.13;;;3.88;;
82186;SDS011;71776;52.042;8.160;2023-08-06T05:40:04;3.92;;;3.65;;
82186;SDS011;71776;52.042;8.160;2023-08-06T05:42:30;4.47;;;4.10;;
82186;SDS011;71776;52.042;8.160;2023-08-06T05:44:55;4.30;;;4.00;;
82186;SDS011;71776;52.042;8.160;2023-08-06T05:47:21;4.60;;;4.20;;
82186;SDS011;71776;52.042;8.160;2023-08-06T05:49:47;4.38;;;4.07;;
82186;SDS011;71776;52.042;8.160;2023-08-06T05:52:12;4.25;;;3.95;;
82186;SDS011;71776;52.042;8.160;2023-08-06T05:54:39;4.50;;;4.20;;
82186;SDS011;71776;52.042;8.160;2023-08-06T05:57:05;4.25;;;3.92;;
82186;SDS011;71776;52.042;8.160;2023-08-06T05:59:31;4.20;;;3.90;;
82186;SDS011;71776;52.042;8.160;2023-08-06T06:01:57;11.07;;;4.28;;
82186;SDS011;71776;52.042;8.160;2023-08-06T06:04:22;7.78;;;4.10;;
82186;SDS011;71776;52.042;8.160;2023-08-06T06:06:48;4.00;;;3.70;;
82186;SDS011;71776;52.042;8.160;2023-08-06T06:09:13;4.35;;;4.05;;
82186;SDS011;71776;52.042;8.160;2023-08-06T06:11:40;4.15;;;3.50;;
82186;SDS011;71776;52.042;8.160;2023-08-06T06:14:06;4.38;;;3.88;;
82186;SDS011;71776;52.042;8.160;2023-08-06T06:16:31;4.10;;;3.80;;
82186;SDS011;71776;52.042;8.160;2023-08-06T06:18:57;4.82;;;4.45;;
82186;SDS011;71776;52.042;8.160;2023-08-06T06:21:22;4.32;;;4.03;;
82186;SDS011;71776;52.042;8.160;2023-08-06T06:23:48;4.18;;;3.88;;
82186;SDS011;71776;52.042;8.160;2023-08-06T06:26:14;4.20;;;3.90;;
82186;SDS011;71776;52.042;8.160;2023-08-06T06:28:41;4.25;;;3.95;;
82186;SDS011;71776;52.042;8.160;2023-08-06T06:31:06;4.70;;;4.40;;
82186;SDS011;71776;52.042;8.160;2023-08-06T06:33:32;4.43;;;4.13;;
82186;SDS011;71776;52.042;8.160;2023-08-06T06:35:57;4.53;;;4.22;;
82186;SDS011;71776;52.042;8.160;2023-08-06T06:38:23;4.82;;;4.35;;
82186;SDS011;71776;52.042;8.160;2023-08-06T06:40:53;7.80;;;4.75;;
82186;SDS011;71776;52.042;8.160;2023-08-06T06:43:19;4.88;;;4.47;;
82186;SDS011;71776;52.042;8.160;2023-08-06T06:45:46;7.10;;;4.38;;
82186;SDS011;71776;52.042;8.160;2023-08-06T06:48:11;6.53;;;3.60;;
82186;SDS011;71776;52.042;8.160;2023-08-06T06:50:37;4.10;;;3.70;;
82186;SDS011;71776;52.042;8.160;2023-08-06T06:53:02;6.15;;;3.58;;
82186;SDS011;71776;52.042;8.160;2023-08-06T06:55:31;4.03;;;3.72;;
82186;SDS011;71776;52.042;8.160;2023-08-06T06:57:56;3.83;;;3.53;;
82186;SDS011;71776;52.042;8.160;2023-08-06T07:00:23;3.90;;;3.60;;
82186;SDS011;71776;52.042;8.160;2023-08-06T07:02:50;3.80;;;3.60;;
82186;SDS011;71776;52.042;8.160;2023-08-06T07:05:15;4.22;;;3.75;;
82186;SDS011;71776;52.042;8.160;2023-08-06T07:07:41;6.03;;;3.30;;
82186;SDS011;71776;52.042;8.160;2023-08-06T07:10:06;3.78;;;3.45;;
82186;SDS011;71776;52.042;8.160;2023-08-06T07:12:32;3.78;;;3.38;;
82186;SDS011;71776;52.042;8.160;2023-08-06T07:14:58;3.40;;;3.20;;
82186;SDS011;71776;52.042;8.160;2023-08-06T07:17:23;3.50;;;3.20;;
82186;SDS011;71776;52.042;8.160;2023-08-06T07:19:51;3.42;;;3.22;;
82186;SDS011;71776;52.042;8.160;2023-08-06T07:22:17;3.80;;;3.50;;
82186;SDS011;71776;52.042;8.160;2023-08-06T07:24:42;3.22;;;3.03;;
82186;SDS011;71776;52.042;8.160;2023-08-06T07:27:08;3.30;;;3.10;;
82186;SDS011;71776;52.042;8.160;2023-08-06T07:29:33;3.00;;;2.80;;
82186;SDS011;71776;52.042;8.160;2023-08-06T07:31:59;3.42;;;3.20;;
82186;SDS011;71776;52.042;8.160;2023-08-06T07:34:24;3.25;;;2.97;;
82186;SDS011;71776;52.042;8.160;2023-08-06T07:36:51;3.88;;;3.53;;
82186;SDS011;71776;52.042;8.160;2023-08-06T07:39:17;3.63;;;3.42;;
82186;SDS011;71776;52.042;8.160;2023-08-06T07:41:42;4.30;;;3.47;;
82186;SDS011;71776;52.042;8.160;2023-08-06T07:44:08;3.58;;;3.20;;
82186;SDS011;71776;52.042;8.160;2023-08-06T07:46:33;3.45;;;3.15;;
82186;SDS011;71776;52.042;8.160;2023-08-06T07:48:59;3.50;;;3.20;;
82186;SDS011;71776;52.042;8.160;2023-08-06T07:51:24;4.07;;;3.33;;
82186;SDS011;71776;52.042;8.160;2023-08-06T07:53:51;4.68;;;3.55;;
82186;SDS011;71776;52.042;8.160;2023-08-06T07:56:17;3.83;;;3.53;;
82186;SDS011;71776;52.042;8.160;2023-08-06T07:58:42;3.58;;;3.22;;
82186;SDS011;71776;52.042;8.160;2023-08-06T08:01:08;3.53;;;3.33;;
82186;SDS011;71776;52.042;8.160;2023-08-06T08:03:33;4.32;;;3.03;;
82186;SDS011;71776;52.042;8.160;2023-08-06T08:05:59;4.10;;;3.70;;
82186;SDS011;71776;52.042;8.160;2023-08-06T08:08:24;4.40;;;3.10;;
82186;SDS011;71776;52.042;8.160;2023-08-06T08:10:51;3.28;;;3.08;;
82186;SDS011;71776;52.042;8.160;2023-08-06T08:13:17;3.33;;;3.03;;
82186;SDS011;71776;52.042;8.160;2023-08-06T08:15:42;3.22;;;2.92;;
82186;SDS011;71776;52.042;8.160;2023-08-06T08:18:08;3.00;;;2.75;;
82186;SDS011;71776;52.042;8.160;2023-08-06T08:20:33;3.10;;;2.83;;
82186;SDS011;71776;52.042;8.160;2023-08-06T08:22:59;2.83;;;2.67;;
82186;SDS011;71776;52.042;8.160;2023-08-06T08:25:25;3.03;;;2.83;;
82186;SDS011;71776;52.042;8.160;2023-08-06T08:27:52;2.75;;;2.55;;
82186;SDS011;71776;52.042;8.160;2023-08-06T08:30:17;2.63;;;2.42;;
82186;SDS011;71776;52.042;8.160;2023-08-06T08:32:43;2.05;;;1.95;;
82186;SDS011;71776;52.042;8.160;2023-08-06T08:35:08;1.90;;;1.80;;
82186;SDS011;71776;52.042;8.160;2023-08-06T08:37:34;2.10;;;2.00;;
82186;SDS011;71776;52.042;8.160;2023-08-06T08:40:00;2.70;;;2.42;;
82186;SDS011;71776;52.042;8.160;2023-08-06T08:42:26;2.35;;;2.15;;
82186;SDS011;71776;52.042;8.160;2023-08-06T08:44:53;2.10;;;2.00;;
82186;SDS011;71776;52.042;8.160;2023-08-06T08:47:20;3.00;;;2.45;;
82186;SDS011;71776;52.042;8.160;2023-08-06T08:49:46;3.22;;;3.00;;
82186;SDS011;71776;52.042;8.160;2023-08-06T08:52:13;5.47;;;2.90;;
82186;SDS011;71776;52.042;8.160;2023-08-06T08:54:41;5.30;;;4.90;;
82186;SDS011;71776;52.042;8.160;2023-08-06T08:57:09;2.90;;;2.70;;
82186;SDS011;71776;52.042;8.160;2023-08-06T08:59:35;3.45;;;3.15;;
82186;SDS011;71776;52.042;8.160;2023-08-06T09:02:02;2.75;;;2.33;;
82186;SDS011;71776;52.042;8.160;2023-08-06T09:04:28;1.92;;;1.83;;
82186;SDS011;71776;52.042;8.160;2023-08-06T09:06:55;2.90;;;1.85;;
82186;SDS011;71776;52.042;8.160;2023-08-06T09:09:25;2.28;;;2.13;;
82186;SDS011;71776;52.042;8.160;2023-08-06T09:11:52;2.05;;;1.60;;
82186;SDS011;71776;52.042;8.160;2023-08-06T09:14:23;2.17;;;1.98;;
82186;SDS011;71776;52.042;8.160;2023-08-06T09:16:48;2.13;;;1.92;;
82186;SDS011;71776;52.042;8.160;2023-08-06T09:19:16;5.80;;;2.28;;
82186;SDS011;71776;52.042;8.160;2023-08-06T09:21:41;1.85;;;1.75;;
82186;SDS011;71776;52.042;8.160;2023-08-06T09:24:09;2.08;;;1.95;;
82186;SDS011;71776;52.042;8.160;2023-08-06T09:26:35;2.13;;;2.03;;
82186;SDS011;71776;52.042;8.160;2023-08-06T09:29:01;2.30;;;2.20;;
82186;SDS011;71776;52.042;8.160;2023-08-06T09:31:32;1.98;;;1.88;;
82186;SDS011;71776;52.042;8.160;2023-08-06T09:33:59;2.33;;;2.13;;
82186;SDS011;71776;52.042;8.160;2023-08-06T09:36:29;1.83;;;1.73;;
82186;SDS011;71776;52.042;8.160;2023-08-06T09:38:55;2.10;;;2.00;;
82186;SDS011;71776;52.042;8.160;2023-08-06T09:41:25;2.35;;;2.15;;
82186;SDS011;71776;52.042;8.160;2023-08-06T09:43:52;2.47;;;2.28;;
82186;SDS011;71776;52.042;8.160;2023-08-06T09:46:17;2.00;;;1.90;;
82186;SDS011;71776;52.042;8.160;2023-08-06T09:48:44;2.67;;;2.47;;
82186;SDS011;71776;52.042;8.160;2023-08-06T09:51:10;2.47;;;2.28;;
82186;SDS011;71776;52.042;8.160;2023-08-06T09:53:39;2.58;;;2.35;;
82186;SDS011;71776;52.042;8.160;2023-08-06T09:56:05;2.33;;;2.00;;
82186;SDS011;71776;52.042;8.160;2023-08-06T09:58:31;3.00;;;2.22;;
82186;SDS011;71776;52.042;8.160;2023-08-06T10:00:57;2.03;;;1.90;;
82186;SDS011;71776;52.042;8.160;2023-08-06T10:03:23;2.22;;;2.03;;
82186;SDS011;71776;52.042;8.160;2023-08-06T10:05:50;2.55;;;2.33;;
82186;SDS011;71776;52.042;8.160;2023-08-06T10:08:15;2.55;;;2.35;;
82186;SDS011;71776;52.042;8.160;2023-08-06T10:10:42;2.63;;;2.42;;
82186;SDS011;71776;52.042;8.160;2023-08-06T10:13:09;4.88;;;2.30;;
82186;SDS011;71776;52.042;8.160;2023-08-06T10:15:36;2.22;;;2.13;;
82186;SDS011;71776;52.042;8.160;2023-08-06T10:18:03;2.00;;;1.90;;
82186;SDS011;71776;52.042;8.160;2023-08-06T10:20:32;2.13;;;2.03;;
82186;SDS011;71776;52.042;8.160;2023-08-06T10:23:02;3.08;;;2.25;;
82186;SDS011;71776;52.042;8.160;2023-08-06T10:25:32;3.13;;;2.30;;
82186;SDS011;71776;52.042;8.160;2023-08-06T10:28:00;2.25;;;2.05;;
82186;SDS011;71776;52.042;8.160;2023-08-06T10:30:26;2.20;;;2.08;;
82186;SDS011;71776;52.042;8.160;2023-08-06T10:32:53;2.40;;;2.20;;
82186;SDS011;71776;52.042;8.160;2023-08-06T10:35:29;2.30;;;2.15;;
82186;SDS011;71776;52.042;8.160;2023-08-06T10:37:59;2.28;;;2.15;;
82186;SDS011;71776;52.042;8.160;2023-08-06T10:40:29;2.08;;;1.92;;
82186;SDS011;71776;52.042;8.160;2023-08-06T10:42:55;3.30;;;2.00;;
82186;SDS011;71776;52.042;8.160;2023-08-06T10:45:22;2.55;;;1.95;;
82186;SDS011;71776;52.042;8.160;2023-08-06T10:47:47;1.98;;;1.88;;
82186;SDS011;71776;52.042;8.160;2023-08-06T10:50:13;2.47;;;2.28;;
82186;SDS011;71776;52.042;8.160;2023-08-06T10:52:40;1.92;;;1.80;;
82186;SDS011;71776;52.042;8.160;2023-08-06T10:55:06;2.53;;;1.90;;
82186;SDS011;71776;52.042;8.160;2023-08-06T10:57:32;1.65;;;1.50;;
82186;SDS011;71776;52.042;8.160;2023-08-06T10:59:58;1.80;;;1.70;;
82186;SDS011;71776;52.042;8.160;2023-08-06T11:02:25;2.13;;;1.92;;
82186;SDS011;71776;52.042;8.160;2023-08-06T11:04:50;1.85;;;1.70;;
82186;SDS011;71776;52.042;8.160;2023-08-06T11:07:16;1.80;;;1.70;;
82186;SDS011;71776;52.042;8.160;2023-08-06T11:09:41;2.08;;;1.98;;
82186;SDS011;71776;52.042;8.160;2023-08-06T11:12:09;1.98;;;1.67;;
82186;SDS011;71776;52.042;8.160;2023-08-06T11:14:35;2.00;;;1.90;;
82186;SDS011;71776;52.042;8.160;2023-08-06T11:17:00;3.92;;;2.00;;
82186;SDS011;71776;52.042;8.160;2023-08-06T11:19:28;1.90;;;1.80;;
82186;SDS011;71776;52.042;8.160;2023-08-06T11:21:54;1.63;;;1.52;;
82186;SDS011;71776;52.042;8.160;2023-08-06T11:24:19;1.65;;;1.55;;
82186;SDS011;71776;52.042;8.160;2023-08-06T11:26:45;2.25;;;2.15;;
82186;SDS011;71776;52.042;8.160;2023-08-06T11:29:11;1.80;;;1.70;;
82186;SDS011;71776;52.042;8.160;2023-08-06T11:31:36;1.73;;;1.63;;
82186;SDS011;71776;52.042;8.160;2023-08-06T11:34:02;2.50;;;1.80;;
82186;SDS011;71776;52.042;8.160;2023-08-06T11:36:29;1.38;;;1.33;;
82186;SDS011;71776;52.042;8.160;2023-08-06T11:38:55;1.60;;;1.45;;
82186;SDS011;71776;52.042;8.160;2023-08-06T11:41:21;1.58;;;1.45;;
82186;SDS011;71776;52.042;8.160;2023-08-06T11:43:47;1.00;;;1.00;;
82186;SDS011;71776;52.042;8.160;2023-08-06T11:46:12;1.40;;;1.30;;
82186;SDS011;71776;52.042;8.160;2023-08-06T11:48:50;1.45;;;1.35;;
82186;SDS011;71776;52.042;8.160;2023-08-06T11:51:16;1.30;;;1.20;;
82186;SDS011;71776;52.042;8.160;2023-08-06T11:53:43;1.38;;;1.17;;
82186;SDS011;71776;52.042;8.160;2023-08-06T11:56:13;2.13;;;1.50;;
82186;SDS011;71776;52.042;8.160;2023-08-06T11:58:40;1.00;;;1.00;;
82186;SDS011;71776;52.042;8.160;2023-08-06T12:01:06;1.50;;;1.40;;
82186;SDS011;71776;52.042;8.160;2023-08-06T12:03:32;2.17;;;1.50;;
82186;SDS011;71776;52.042;8.160;2023-08-06T12:05:57;10.65;;;9.43;;
82186;SDS011;71776;52.042;8.160;2023-08-06T12:08:26;2.97;;;1.80;;
82186;SDS011;71776;52.042;8.160;2023-08-06T12:10:53;1.60;;;1.50;;
82186;SDS011;71776;52.042;8.160;2023-08-06T12:13:18;1.75;;;1.65;;
82186;SDS011;71776;52.042;8.160;2023-08-06T12:15:44;1.85;;;1.45;;
82186;SDS011;71776;52.042;8.160;2023-08-06T12:18:15;1.95;;;1.48;;
82186;SDS011;71776;52.042;8.160;2023-08-06T12:20:41;1.40;;;1.30;;
82186;SDS011;71776;52.042;8.160;2023-08-06T12:23:06;1.92;;;1.40;;
82186;SDS011;71776;52.042;8.160;2023-08-06T12:25:32;1.45;;;1.35;;
82186;SDS011;71776;52.042;8.160;2023-08-06T12:27:58;2.17;;;1.05;;
82186;SDS011;71776;52.042;8.160;2023-08-06T12:30:24;2.33;;;1.90;;
82186;SDS011;71776;52.042;8.160;2023-08-06T12:32:50;2.00;;;1.90;;
82186;SDS011;71776;52.042;8.160;2023-08-06T12:35:15;2.10;;;1.70;;
82186;SDS011;71776;52.042;8.160;2023-08-06T12:37:42;1.80;;;1.70;;
82186;SDS011;71776;52.042;8.160;2023-08-06T12:40:08;1.77;;;1.67;;
82186;SDS011;71776;52.042;8.160;2023-08-06T12:42:33;1.90;;;1.80;;
82186;SDS011;71776;52.042;8.160;2023-08-06T12:45:00;1.77;;;1.67;;
82186;SDS011;71776;52.042;8.160;2023-08-06T12:47:26;1.80;;;1.58;;
82186;SDS011;71776;52.042;8.160;2023-08-06T12:49:51;1.70;;;1.60;;
82186;SDS011;71776;52.042;8.160;2023-08-06T12:52:17;4.30;;;3.85;;
82186;SDS011;71776;52.042;8.160;2023-08-06T12:54:42;1.60;;;1.50;;
82186;SDS011;71776;52.042;8.160;2023-08-06T12:57:08;2.75;;;1.65;;
82186;SDS011;71776;52.042;8.160;2023-08-06T12:59:33;7.10;;;6.45;;
82186;SDS011;71776;52.042;8.160;2023-08-06T13:02:00;1.90;;;1.80;;
82186;SDS011;71776;52.042;8.160;2023-08-06T13:04:26;1.60;;;1.50;;
82186;SDS011;71776;52.042;8.160;2023-08-06T13:06:51;1.75;;;1.42;;
82186;SDS011;71776;52.042;8.160;2023-08-06T13:09:17;8.50;;;1.88;;
82186;SDS011;71776;52.042;8.160;2023-08-06T13:11:42;1.70;;;1.60;;
82186;SDS011;71776;52.042;8.160;2023-08-06T13:14:08;1.73;;;1.63;;
82186;SDS011;71776;52.042;8.160;2023-08-06T13:16:35;2.08;;;1.83;;
82186;SDS011;71776;52.042;8.160;2023-08-06T13:19:03;3.47;;;2.03;;
82186;SDS011;71776;52.042;8.160;2023-08-06T13:21:31;2.20;;;2.10;;
82186;SDS011;71776;52.042;8.160;2023-08-06T13:23:57;2.38;;;2.13;;
82186;SDS011;71776;52.042;8.160;2023-08-06T13:26:23;2.20;;;2.10;;
82186;SDS011;71776;52.042;8.160;2023-08-06T13:28:49;2.53;;;2.30;;
82186;SDS011;71776;52.042;8.160;2023-08-06T13:31:14;2.40;;;2.30;;
82186;SDS011;71776;52.042;8.160;2023-08-06T13:33:40;4.18;;;2.67;;
82186;SDS011;71776;52.042;8.160;2023-08-06T13:36:07;2.78;;;2.50;;
82186;SDS011;71776;52.042;8.160;2023-08-06T13:38:32;2.35;;;2.25;;
82186;SDS011;71776;52.042;8.160;2023-08-06T13:40:58;2.70;;;2.50;;
82186;SDS011;71776;52.042;8.160;2023-08-06T13:43:24;2.63;;;2.53;;
82186;SDS011;71776;52.042;8.160;2023-08-06T13:45:49;2.85;;;2.65;;
82186;SDS011;71776;52.042;8.160;2023-08-06T13:48:15;4.28;;;2.90;;
82186;SDS011;71776;52.042;8.160;2023-08-06T13:50:40;2.95;;;2.50;;
82186;SDS011;71776;52.042;8.160;2023-08-06T13:53:07;3.03;;;2.70;;
82186;SDS011;71776;52.042;8.160;2023-08-06T13:55:33;2.72;;;2.53;;
82186;SDS011;71776;52.042;8.160;2023-08-06T13:57:58;2.70;;;2.50;;
82186;SDS011;71776;52.042;8.160;2023-08-06T14:00:24;2.97;;;2.78;;
82186;SDS011;71776;52.042;8.160;2023-08-06T14:02:49;2.70;;;2.60;;
82186;SDS011;71776;52.042;8.160;2023-08-06T14:05:15;2.97;;;2.78;;
82186;SDS011;71776;52.042;8.160;2023-08-06T14:07:40;3.15;;;2.85;;
82186;SDS011;71776;52.042;8.160;2023-08-06T14:10:08;3.00;;;2.80;;
82186;SDS011;71776;52.042;8.160;2023-08-06T14:12:33;2.67;;;2.47;;
82186;SDS011;71776;52.042;8.160;2023-08-06T14:14:59;3.88;;;3.63;;
82186;SDS011;71776;52.042;8.160;2023-08-06T14:17:25;4.00;;;2.95;;
82186;SDS011;71776;52.042;8.160;2023-08-06T14:19:50;6.35;;;5.75;;
82186;SDS011;71776;52.042;8.160;2023-08-06T14:22:16;2.88;;;2.67;;
82186;SDS011;71776;52.042;8.160;2023-08-06T14:24:42;3.67;;;2.40;;
82186;SDS011;71776;52.042;8.160;2023-08-06T14:27:09;2.70;;;2.60;;
82186;SDS011;71776;52.042;8.160;2023-08-06T14:29:34;6.07;;;5.57;;
82186;SDS011;71776;52.042;8.160;2023-08-06T14:32:00;3.13;;;2.92;;
82186;SDS011;71776;52.042;8.160;2023-08-06T14:34:25;3.60;;;3.15;;
82186;SDS011;71776;52.042;8.160;2023-08-06T14:36:51;3.03;;;2.92;;
82186;SDS011;71776;52.042;8.160;2023-08-06T14:39:16;3.33;;;3.13;;
82186;SDS011;71776;52.042;8.160;2023-08-06T14:41:42;3.45;;;3.08;;
82186;SDS011;71776;52.042;8.160;2023-08-06T14:44:09;3.83;;;3.10;;